KPSK/PSK METAR and TAF weather

Enter ICAO airport designator
Station Type Date Time Source
KPSK METAR 2022/08/12 14:35 UTC NOAA

KPSK 121435Z AUTO 36004KT 10SM OVC019 21/18 A3015 RMK AO2 LTG DSNT S T02120177


Station Type Date Time Source
KPSK Decoded METAR 2022/08/12 14:35 UTC NOAA

Dublin / New River Valley, VA, United States (KPSK) 37-08N 080-41W
Aug 12, 2022 - 10:35 AM EDT / 2022.08.12 1435 UTC
Wind: from the N (360 degrees) at 5 MPH (4 KT):0
Visibility: 10 mile(s):0
Sky conditions: overcast
Weather: Lightning observed
Temperature: 70.2 F (21.2 C)
Dew Point: 63.9 F (17.7 C)
Relative Humidity: 80%
Pressure (altimeter): 30.15 in. Hg (1020 hPa)
ob: KPSK 121435Z AUTO 36004KT 10SM OVC019 21/18 A3015 RMK AO2 LTG DSNT S T02120177
cycle: 14

Station Type Date Time Source
KPSK TAF UTC NOAA

Error!

Example: see airport list